Time;durP1;ratioP1;P1;durP2;ratioP2;P2;SDS_P1;SDS_P2;PMS_P1;PMS_P2;Temp;Humidity;BMP_temperature;BMP_pressure;BME280_temperature;BME280_humidity;BME280_pressure;Samples;Min_cycle;Max_cycle;Signal;HPM_P1;HPM_P2
2021/05/14 00:00:40;;;;;;;5.87;4.75;;;;;;;13.69;62.57;99596.93;1742315;82;21023;-72
2021/05/14 00:03:07;;;;;;;6.55;4.87;;;;;;;13.71;62.49;99590.16;1749146;82;20987;-71
2021/05/14 00:05:36;;;;;;;5.92;4.55;;;;;;;13.73;62.45;99587.67;1736412;82;20955;-71
2021/05/14 00:08:03;;;;;;;7.40;4.45;;;;;;;13.73;62.37;99575.73;1720744;82;21748;-71
2021/05/14 00:10:29;;;;;;;4.83;4.42;;;;;;;13.75;62.37;99581.70;1719896;82;21496;-72
2021/05/14 00:12:56;;;;;;;6.70;4.53;;;;;;;13.76;62.37;99579.88;1745274;82;21018;-71
2021/05/14 00:15:22;;;;;;;5.17;4.20;;;;;;;13.78;62.50;99579.70;1736627;82;21082;-71
2021/05/14 00:17:50;;;;;;;5.12;4.47;;;;;;;13.79;62.50;99577.38;1736538;82;21082;-71
2021/05/14 00:20:17;;;;;;;7.12;4.58;;;;;;;13.80;62.57;99579.05;1719517;83;21815;-71
2021/05/14 00:22:44;;;;;;;5.72;4.12;;;;;;;13.79;62.59;99571.58;1720309;82;21583;-71
2021/05/14 00:25:11;;;;;;;5.62;3.87;;;;;;;13.81;62.49;99566.13;1719985;82;21105;-71
2021/05/14 00:27:38;;;;;;;8.35;4.40;;;;;;;13.82;62.40;99565.14;1739126;82;21045;-71
2021/05/14 00:30:06;;;;;;;6.03;4.08;;;;;;;13.83;62.33;99560.98;1721367;82;21560;-71
2021/05/14 00:32:33;;;;;;;6.17;3.98;;;;;;;13.83;62.29;99557.51;1740106;82;21769;-71
2021/05/14 00:35:00;;;;;;;6.37;3.90;;;;;;;13.83;62.27;99557.01;1749303;82;20962;-71
2021/05/14 00:37:26;;;;;;;5.87;3.90;;;;;;;13.83;62.21;99558.83;1749259;82;21014;-71
2021/05/14 00:39:53;;;;;;;6.40;4.10;;;;;;;13.84;62.06;99554.69;1731403;82;21098;-71
2021/05/14 00:42:19;;;;;;;9.00;4.30;;;;;;;13.85;61.97;99556.34;1719784;82;21108;-71
2021/05/14 00:44:46;;;;;;;6.30;4.50;;;;;;;13.84;62.12;99557.34;1719455;83;21743;-71
2021/05/14 00:47:17;;;;;;;6.92;4.30;;;;;;;13.82;62.18;99555.35;1734718;82;21124;-71
2021/05/14 00:49:44;;;;;;;7.67;4.20;;;;;;;13.82;62.23;99554.02;1724268;82;21548;-71
2021/05/14 00:52:14;;;;;;;4.78;4.20;;;;;;;13.80;62.25;99554.69;1737383;82;21103;-71
2021/05/14 00:54:41;;;;;;;6.35;4.70;;;;;;;13.80;62.27;99560.00;1721430;82;21005;-71
2021/05/14 00:57:07;;;;;;;7.35;4.65;;;;;;;13.80;62.38;99555.16;1728516;82;21743;-71
2021/05/14 00:59:34;;;;;;;6.47;4.55;;;;;;;13.78;62.53;99547.86;1721885;82;21078;-71
2021/05/14 01:02:00;;;;;;;7.05;4.33;;;;;;;13.77;62.71;99547.03;1735581;82;20987;-72
2021/05/14 01:04:27;;;;;;;7.17;4.80;;;;;;;13.76;62.86;99558.64;1719599;82;21489;-71
2021/05/14 01:06:54;;;;;;;6.05;4.80;;;;;;;13.74;62.96;99557.98;1739733;82;21014;-71
2021/05/14 01:09:20;;;;;;;6.53;4.67;;;;;;;13.70;62.98;99550.84;1748293;82;22247;-71
2021/05/14 01:11:47;;;;;;;5.97;4.62;;;;;;;13.70;63.01;99553.50;1733805;82;21018;-72
2021/05/14 01:14:13;;;;;;;5.15;4.30;;;;;;;13.68;63.16;99548.00;1720771;82;21208;-71
2021/05/14 01:16:40;;;;;;;6.97;4.45;;;;;;;13.65;63.34;99551.81;1719580;83;21502;-71
2021/05/14 01:19:06;;;;;;;6.95;4.30;;;;;;;13.63;63.42;99547.67;1725173;82;20999;-71
2021/05/14 01:21:33;;;;;;;5.20;4.70;;;;;;;13.59;63.47;99549.80;1721219;82;21747;-71
2021/05/14 01:23:59;;;;;;;7.53;4.70;;;;;;;13.58;63.54;99544.66;1719518;82;20974;-71
2021/05/14 01:26:26;;;;;;;5.37;4.40;;;;;;;13.56;63.63;99547.97;1719382;83;21552;-71
2021/05/14 01:28:54;;;;;;;6.67;4.25;;;;;;;13.54;63.76;99546.81;1719430;83;21097;-71
2021/05/14 01:31:21;;;;;;;5.15;4.40;;;;;;;13.52;63.76;99547.47;1697052;82;21022;-71
2021/05/14 01:33:48;;;;;;;5.87;4.42;;;;;;;13.51;63.78;99544.95;1723509;82;22315;-71
2021/05/14 01:36:14;;;;;;;5.47;4.45;;;;;;;13.51;63.83;99543.16;1725089;82;21045;-71
2021/05/14 01:38:41;;;;;;;9.78;4.60;;;;;;;13.52;63.93;99540.02;1719561;83;20950;-71
2021/05/14 01:41:07;;;;;;;5.33;4.83;;;;;;;13.49;64.06;99541.14;1736278;82;21026;-71
2021/05/14 01:43:34;;;;;;;5.58;4.00;;;;;;;13.45;64.28;99530.53;1726189;82;21484;-71
2021/05/14 01:46:05;;;;;;;7.25;4.50;;;;;;;13.41;64.43;99535.34;1719449;82;21735;-71
2021/05/14 01:48:32;;;;;;;5.33;4.28;;;;;;;13.34;64.62;99531.66;1737044;82;21587;-72
2021/05/14 01:51:17;;;;;;;4.90;4.25;;;;;;;13.24;65.07;99531.45;1719665;82;20974;-71
2021/05/14 01:53:44;;;;;;;7.20;4.35;;;;;;;13.14;65.44;99536.34;1738985;82;21065;-71
2021/05/14 01:56:10;;;;;;;5.62;4.35;;;;;;;13.05;65.72;99537.30;1722263;82;21042;-71
2021/05/14 01:58:37;;;;;;;8.20;4.75;;;;;;;13.00;65.94;99534.77;1721472;82;21519;-71
2021/05/14 02:01:04;;;;;;;7.58;4.97;;;;;;;12.94;66.12;99525.64;1720086;82;21643;-71
2021/05/14 02:03:30;;;;;;;10.45;4.97;;;;;;;12.86;66.27;99526.42;1719628;82;20966;-72
2021/05/14 02:05:57;;;;;;;9.38;5.72;;;;;;;12.80;66.57;99523.56;1732658;82;20998;-72
2021/05/14 02:08:23;;;;;;;8.08;5.75;;;;;;;12.75;66.74;99525.37;1732726;82;21125;-71
2021/05/14 02:10:50;;;;;;;8.98;6.17;;;;;;;12.77;66.87;99531.83;1741272;80;21732;-71
2021/05/14 02:13:16;;;;;;;8.55;6.08;;;;;;;12.77;67.04;99522.06;1719349;83;21006;-71
2021/05/14 02:15:42;;;;;;;8.60;6.42;;;;;;;12.78;67.17;99520.23;1742970;82;21038;-71
2021/05/14 02:18:10;;;;;;;7.65;6.60;;;;;;;12.79;67.25;99520.58;1749250;82;20983;-71
2021/05/14 02:20:36;;;;;;;11.75;6.65;;;;;;;12.79;67.30;99516.59;1745875;82;20955;-72
2021/05/14 02:23:03;;;;;;;10.72;6.95;;;;;;;12.79;67.41;99513.95;1719466;83;22290;-71
2021/05/14 02:25:29;;;;;;;12.33;8.05;;;;;;;12.79;67.45;99517.43;1722914;82;21042;-71
2021/05/14 02:27:56;;;;;;;10.85;7.40;;;;;;;12.80;67.49;99503.69;1731366;82;21062;-71
2021/05/14 02:30:22;;;;;;;12.98;7.60;;;;;;;12.80;67.50;99504.52;1743976;82;21125;-71
2021/05/14 02:32:49;;;;;;;12.28;7.87;;;;;;;12.78;67.62;99507.81;1719647;82;20982;-71
2021/05/14 02:35:15;;;;;;;13.93;8.18;;;;;;;12.77;67.73;99492.91;1727341;82;22404;-71
2021/05/14 02:37:42;;;;;;;11.38;7.53;;;;;;;12.76;67.82;99487.28;1731917;82;21043;-72
2021/05/14 02:40:11;;;;;;;15.32;8.13;;;;;;;12.75;67.96;99486.12;1726292;82;21010;-71
2021/05/14 02:42:37;;;;;;;10.95;8.18;;;;;;;12.73;68.07;99486.74;1742364;82;21548;-71
2021/05/14 02:45:06;;;;;;;13.55;7.65;;;;;;;12.73;68.21;99484.92;1719440;83;21073;-71
2021/05/14 02:47:32;;;;;;;10.53;7.70;;;;;;;12.75;68.31;99486.12;1720359;82;22362;-71
2021/05/14 02:49:59;;;;;;;13.98;7.58;;;;;;;12.75;68.37;99485.63;1727228;82;20970;-71
2021/05/14 02:52:25;;;;;;;14.50;7.20;;;;;;;12.75;68.47;99483.47;1742054;82;21022;-71
2021/05/14 02:54:52;;;;;;;8.73;6.83;;;;;;;12.75;68.43;99473.70;1746087;82;21173;-71
2021/05/14 02:57:18;;;;;;;9.88;6.62;;;;;;;12.77;68.47;99473.53;1721741;82;21018;-71
2021/05/14 02:59:45;;;;;;;9.00;6.60;;;;;;;12.78;68.58;99480.49;1714183;81;21757;-73
2021/05/14 03:02:11;;;;;;;9.03;6.17;;;;;;;12.80;68.63;99475.36;1749753;81;21445;-71
2021/05/14 03:04:37;;;;;;;8.78;6.40;;;;;;;12.81;68.69;99474.87;1740526;81;21109;-71
2021/05/14 03:07:04;;;;;;;9.58;6.30;;;;;;;12.82;68.79;99477.85;1751627;81;21093;-71
2021/05/14 03:09:30;;;;;;;11.05;6.22;;;;;;;12.85;68.85;99471.76;1728353;81;21009;-71
2021/05/14 03:11:57;;;;;;;7.70;6.20;;;;;;;12.89;68.93;99476.23;1693851;81;21746;-69
2021/05/14 03:14:23;;;;;;;11.40;6.00;;;;;;;12.91;69.04;99475.58;1742132;81;21512;-71
2021/05/14 03:16:52;;;;;;;7.97;5.67;;;;;;;12.91;69.15;99472.92;1746000;81;21053;-70
2021/05/14 03:19:18;;;;;;;8.20;5.33;;;;;;;12.93;69.22;99477.57;1746323;81;21086;-70
2021/05/14 03:21:44;;;;;;;9.08;5.50;;;;;;;12.94;69.34;99472.63;1740147;81;21029;-70
2021/05/14 03:24:11;;;;;;;8.85;5.78;;;;;;;12.95;69.40;99472.13;1745460;81;22280;-70
2021/05/14 03:26:37;;;;;;;5.75;5.00;;;;;;;12.98;69.50;99469.16;1745444;81;21105;-71
2021/05/14 03:29:05;;;;;;;15.05;5.12;;;;;;;12.99;69.48;99473.47;1752405;81;21077;-71
2021/05/14 03:31:32;;;;;;;6.03;5.20;;;;;;;13.01;69.55;99477.61;1739180;81;21073;-71
2021/05/14 03:33:58;;;;;;;8.05;4.95;;;;;;;13.03;69.58;99474.33;1731780;81;21587;-70
2021/05/14 03:36:24;;;;;;;8.45;4.60;;;;;;;13.07;69.60;99477.48;1741427;81;22267;-70
2021/05/14 03:38:51;;;;;;;8.55;4.47;;;;;;;13.10;69.62;99475.33;1742739;81;21037;-72
2021/05/14 03:41:43;;;;;;;5.65;4.28;;;;;;;13.15;69.59;99477.52;1735353;81;20962;-70
2021/05/14 03:44:02;;;;;;;;;;;;;;;13.20;69.50;99475.73;1729436;81;21579;-71
2021/05/14 03:46:30;;;;;;;10.15;3.83;;;;;;;13.24;69.22;99473.94;1728214;81;20255;-72
2021/05/14 03:48:56;;;;;;;5.78;4.20;;;;;;;13.29;68.84;99474.77;1732739;81;21759;-71
2021/05/14 03:51:23;;;;;;;6.60;3.65;;;;;;;13.37;68.62;99480.92;1737532;81;21026;-72
2021/05/14 03:53:51;;;;;;;5.62;3.87;;;;;;;13.42;68.16;99479.97;1726900;81;20978;-71
2021/05/14 03:56:17;;;;;;;8.68;3.92;;;;;;;13.47;67.77;99472.83;1754814;80;20966;-72
2021/05/14 03:58:43;;;;;;;5.83;3.67;;;;;;;13.53;67.61;99466.89;1743130;81;21631;-70
2021/05/14 04:01:10;;;;;;;5.87;3.33;;;;;;;13.58;67.50;99473.84;1716297;82;22504;-72
2021/05/14 04:03:36;;;;;;;5.20;3.47;;;;;;;13.63;67.25;99466.24;1715706;82;21086;-71
2021/05/14 04:06:03;;;;;;;5.12;3.52;;;;;;;13.68;67.10;99458.60;1713833;83;21022;-70
2021/05/14 04:08:30;;;;;;;5.58;3.40;;;;;;;13.71;66.82;99456.14;1714676;82;21485;-71
2021/05/14 04:11:19;;;;;;;6.80;3.40;;;;;;;13.75;66.43;99452.98;1718904;82;21018;-71
2021/05/14 04:16:16;;;;;;;6.17;3.20;;;;;;;13.82;65.86;99451.00;1714048;82;21359;-72
2021/05/14 04:18:43;;;;;;;4.10;2.80;;;;;;;13.84;65.59;99449.84;1720236;82;21094;-72
2021/05/14 04:21:10;;;;;;;7.00;3.70;;;;;;;13.86;65.67;99455.80;1718407;82;20996;-69
2021/05/14 04:23:36;;;;;;;4.97;2.92;;;;;;;13.87;65.66;99452.65;1741467;82;21561;-68
2021/05/14 04:26:02;;;;;;;6.37;3.20;;;;;;;13.88;65.68;99449.00;1736298;82;22316;-70
2021/05/14 04:28:29;;;;;;;7.87;3.50;;;;;;;13.89;65.53;99440.86;1732991;82;21570;-70
2021/05/14 04:30:55;;;;;;;4.95;3.42;;;;;;;13.94;65.61;99435.90;1734814;81;21541;-70
2021/05/14 04:33:22;;;;;;;4.67;3.25;;;;;;;14.02;65.66;99436.41;1715563;82;21627;-69
2021/05/14 04:35:49;;;;;;;7.75;3.80;;;;;;;14.13;65.55;99436.06;1713493;83;21050;-70
2021/05/14 04:38:15;;;;;;;6.40;3.47;;;;;;;14.21;65.43;99429.42;1714872;82;21521;-73
2021/05/14 04:40:42;;;;;;;8.98;3.40;;;;;;;14.32;65.37;99434.38;1729043;82;21164;-70
2021/05/14 04:43:09;;;;;;;5.30;3.50;;;;;;;14.40;65.00;99434.86;1717350;82;20966;-70
2021/05/14 04:45:36;;;;;;;5.55;3.22;;;;;;;14.45;64.61;99429.89;1713851;82;22558;-70
2021/05/14 04:48:10;;;;;;;5.45;3.15;;;;;;;14.50;64.44;99430.72;1716097;82;21085;-70
2021/05/14 04:50:33;;;;;;;7.42;3.40;;;;;;;14.53;64.45;99435.19;1731729;82;21761;-70
2021/05/14 04:53:09;;;;;;;4.72;3.50;;;;;;;14.55;64.23;99429.70;1740848;82;21129;-70
2021/05/14 04:55:36;;;;;;;6.17;3.60;;;;;;;14.55;63.99;99429.20;1723018;82;21537;-69
2021/05/14 04:58:02;;;;;;;6.50;3.42;;;;;;;14.54;63.90;99421.41;1738111;82;21078;-70
2021/05/14 05:00:29;;;;;;;5.95;3.95;;;;;;;14.56;63.97;99428.20;1741045;81;21003;-71
2021/05/14 05:02:55;;;;;;;6.55;3.60;;;;;;;14.61;64.19;99423.71;1722171;82;21816;-71
2021/05/14 05:05:22;;;;;;;6.65;3.80;;;;;;;14.68;64.02;99420.70;1741471;82;21587;-71
2021/05/14 05:07:48;;;;;;;9.15;4.40;;;;;;;14.73;63.98;99426.83;1728211;82;21500;-71
2021/05/14 05:10:16;;;;;;;5.20;4.28;;;;;;;14.79;63.99;99423.49;1724332;82;21101;-72
2021/05/14 05:12:43;;;;;;;6.78;4.53;;;;;;;14.84;63.92;99417.97;1734796;82;21053;-71
2021/05/14 05:15:11;;;;;;;7.40;4.12;;;;;;;14.87;63.70;99411.00;1726009;82;21705;-71
2021/05/14 05:17:38;;;;;;;5.95;3.98;;;;;;;14.92;63.54;99408.31;1723055;82;21460;-73
2021/05/14 05:20:06;;;;;;;6.10;3.95;;;;;;;14.97;63.31;99413.95;1749404;80;21034;-71
2021/05/14 05:22:33;;;;;;;6.87;4.28;;;;;;;15.02;63.20;99408.92;1749309;82;21109;-71
2021/05/14 05:24:59;;;;;;;8.35;4.42;;;;;;;15.10;63.21;99411.05;1749345;80;20970;-71
2021/05/14 05:27:26;;;;;;;7.85;4.70;;;;;;;15.21;62.91;99404.50;1749336;82;21868;-71
2021/05/14 05:29:53;;;;;;;6.87;4.67;;;;;;;15.31;62.64;99411.75;1705353;82;21089;-71
2021/05/14 05:32:19;;;;;;;8.45;4.58;;;;;;;15.39;62.63;99414.87;1719288;83;20995;-72
2021/05/14 05:34:46;;;;;;;9.95;5.10;;;;;;;15.48;62.54;99411.66;1719513;83;21085;-71
2021/05/14 05:37:12;;;;;;;9.53;4.75;;;;;;;15.56;62.37;99419.59;1719485;83;21042;-71
2021/05/14 05:39:39;;;;;;;9.60;5.20;;;;;;;15.63;62.14;99417.89;1719568;83;22274;-71
2021/05/14 05:42:05;;;;;;;12.15;6.03;;;;;;;15.65;62.14;99422.05;1719313;82;21058;-71
2021/05/14 05:44:31;;;;;;;9.95;5.47;;;;;;;15.71;62.06;99418.66;1719524;82;20954;-72
2021/05/14 05:46:58;;;;;;;10.00;5.28;;;;;;;15.80;62.35;99411.44;1726346;82;21048;-71
2021/05/14 05:49:25;;;;;;;9.80;5.40;;;;;;;15.89;62.20;99411.70;1746593;80;20974;-71
2021/05/14 05:51:53;;;;;;;10.38;5.40;;;;;;;15.97;62.28;99392.16;1742365;82;21504;-71
2021/05/14 05:54:20;;;;;;;15.72;6.15;;;;;;;16.07;62.50;99382.08;1719421;83;20998;-71
2021/05/14 05:56:47;;;;;;;16.35;6.10;;;;;;;16.19;62.21;99375.80;1719411;83;21006;-71
2021/05/14 05:59:16;;;;;;;12.28;5.85;;;;;;;16.28;62.07;99374.70;1719427;83;21101;-71
2021/05/14 06:01:43;;;;;;;14.73;5.70;;;;;;;16.38;61.79;99385.09;1707814;81;21082;-71
2021/05/14 06:04:09;;;;;;;14.93;6.00;;;;;;;16.44;61.56;99382.53;1735255;82;21736;-71
2021/05/14 06:06:35;;;;;;;10.05;6.67;;;;;;;16.52;61.75;99394.95;1728486;82;21098;-68
2021/05/14 06:09:04;;;;;;;13.35;6.60;;;;;;;16.63;61.21;99401.66;1705910;84;21058;-70
2021/05/14 06:11:30;;;;;;;19.15;7.37;;;;;;;16.70;60.98;99391.95;1718475;82;21011;-69
2021/05/14 06:13:57;;;;;;;12.45;7.22;;;;;;;16.75;60.59;99384.20;1705742;82;20987;-71
2021/05/14 06:16:23;;;;;;;12.70;7.17;;;;;;;16.77;60.25;99380.84;1706550;82;21736;-70
2021/05/14 06:18:56;;;;;;;14.20;6.45;;;;;;;16.84;60.39;99387.09;1707155;82;21074;-70
2021/05/14 06:21:18;;;;;;;15.68;6.53;;;;;;;16.90;60.10;99385.02;1705358;84;20962;-70
2021/05/14 06:23:45;;;;;;;14.10;5.92;;;;;;;16.92;59.69;99363.49;1706100;82;21632;-71
2021/05/14 06:26:12;;;;;;;13.48;5.97;;;;;;;16.88;59.74;99366.52;1709996;82;21066;-70
2021/05/14 06:28:39;;;;;;;12.70;6.17;;;;;;;16.86;59.80;99369.05;1735078;82;21786;-71
2021/05/14 06:31:05;;;;;;;13.25;6.10;;;;;;;16.90;60.23;99371.69;1710874;82;21056;-70
2021/05/14 06:33:31;;;;;;;11.83;5.97;;;;;;;16.89;59.88;99384.70;1716437;82;20960;-70
2021/05/14 06:36:01;;;;;;;13.55;6.08;;;;;;;16.87;60.01;99381.38;1730392;82;21085;-71
2021/05/14 06:38:26;;;;;;;13.93;6.00;;;;;;;16.91;60.02;99377.34;1705702;83;21075;-70
2021/05/14 06:40:53;;;;;;;13.10;5.83;;;;;;;16.93;59.83;99377.14;1705788;84;21743;-70
2021/05/14 06:43:20;;;;;;;12.20;6.03;;;;;;;16.92;59.74;99372.31;1705753;84;21027;-71
2021/05/14 06:45:47;;;;;;;13.85;6.50;;;;;;;16.96;59.98;99368.76;1706006;82;20999;-71
2021/05/14 06:48:14;;;;;;;17.65;7.75;;;;;;;17.04;59.81;99368.14;1706299;82;21101;-70
2021/05/14 06:50:42;;;;;;;13.53;7.58;;;;;;;17.16;59.49;99362.63;1705973;82;21546;-71
2021/05/14 06:53:09;;;;;;;19.62;7.50;;;;;;;17.29;59.15;99356.62;1711256;82;21757;-70
2021/05/14 06:55:35;;;;;;;12.25;7.00;;;;;;;17.36;58.71;99352.16;1705674;84;21055;-70
2021/05/14 06:58:08;;;;;;;13.53;8.00;;;;;;;17.44;58.59;99355.22;1705942;84;21128;-71
2021/05/14 07:00:32;;;;;;;41.60;8.98;;;;;;;17.53;58.32;99353.25;1712499;82;21004;-70
2021/05/14 07:02:59;;;;;;;18.40;7.47;;;;;;;17.65;58.02;99353.04;1736938;82;21472;-70
2021/05/14 07:05:25;;;;;;;21.27;7.85;;;;;;;17.78;58.45;99355.05;1720612;82;21797;-70
2021/05/14 07:07:53;;;;;;;13.78;7.90;;;;;;;17.95;58.76;99349.72;1705529;82;21061;-70
2021/05/14 07:10:20;;;;;;;23.20;9.80;;;;;;;18.10;58.18;99343.77;1738026;82;20991;-69
2021/05/14 07:12:46;;;;;;;21.97;10.13;;;;;;;18.19;57.86;99349.28;1738009;82;21556;-68
2021/05/14 07:15:13;;;;;;;19.00;10.10;;;;;;;18.26;57.30;99351.49;1722090;82;21054;-69
2021/05/14 07:17:39;;;;;;;24.63;9.78;;;;;;;18.37;57.68;99348.78;1713700;83;21801;-68
2021/05/14 07:20:07;;;;;;;21.75;10.40;;;;;;;18.42;57.05;99353.01;1685429;83;21616;-68
2021/05/14 07:22:35;;;;;;;25.60;10.72;;;;;;;18.45;57.09;99350.47;1742117;82;21002;-68
2021/05/14 07:25:05;;;;;;;25.97;11.48;;;;;;;18.49;56.79;99349.05;1742727;82;21122;-69
2021/05/14 07:27:31;;;;;;;31.37;12.73;;;;;;;18.54;56.25;99349.29;1735589;82;21083;-68
2021/05/14 07:29:58;;;;;;;36.38;12.88;;;;;;;18.58;55.88;99346.52;1722356;82;21739;-69
2021/05/14 07:32:24;;;;;;;22.20;12.45;;;;;;;18.62;55.47;99343.75;1723777;82;21039;-69
2021/05/14 07:34:52;;;;;;;21.73;10.55;;;;;;;18.62;54.80;99341.08;1736042;82;21058;-69
2021/05/14 07:37:19;;;;;;;16.70;10.48;;;;;;;18.67;55.01;99340.52;1743377;82;21014;-69
2021/05/14 07:39:47;;;;;;;18.00;9.05;;;;;;;18.69;54.96;99343.82;1743869;82;21038;-68
2021/05/14 07:42:13;;;;;;;38.05;11.25;;;;;;;18.71;55.75;99346.60;1719579;82;21752;-68
2021/05/14 07:44:40;;;;;;;61.08;12.65;;;;;;;18.73;56.24;99350.44;1725580;82;20975;-68
2021/05/14 07:47:08;;;;;;;30.62;11.48;;;;;;;18.76;56.69;99346.84;1714409;82;21541;-69
2021/05/14 07:49:35;;;;;;;36.98;11.00;;;;;;;18.81;56.89;99349.73;1725134;82;21082;-69
2021/05/14 07:52:01;;;;;;;22.10;11.55;;;;;;;18.92;56.94;99352.88;1740566;82;20991;-69
2021/05/14 07:54:29;;;;;;;88.82;16.12;;;;;;;18.95;56.54;99357.83;1743565;82;21736;-68
2021/05/14 07:56:55;;;;;;;44.48;11.97;;;;;;;18.96;56.58;99366.98;1728598;82;21041;-68
2021/05/14 07:59:22;;;;;;;25.37;8.70;;;;;;;19.05;56.77;99358.27;1710811;82;20979;-68
2021/05/14 08:01:48;;;;;;;42.10;12.78;;;;;;;19.15;56.90;99358.19;1728714;81;20981;-68
2021/05/14 08:04:15;;;;;;;25.70;10.88;;;;;;;19.33;56.91;99358.96;1710900;82;21074;-69
2021/05/14 08:06:41;;;;;;;51.90;14.25;;;;;;;19.41;55.52;99357.44;1706051;82;21754;-69
2021/05/14 08:09:10;;;;;;;631.00;98.10;;;;;;;19.46;55.37;99354.13;1706288;82;21031;-68
2021/05/14 08:11:36;;;;;;;36.75;13.03;;;;;;;19.65;54.46;99348.52;1698363;82;21018;-68
2021/05/14 08:14:04;;;;;;;39.55;15.03;;;;;;;19.78;53.81;99350.36;1734672;82;21034;-68
2021/05/14 08:16:31;;;;;;;31.57;13.35;;;;;;;19.83;53.61;99347.91;1724295;82;20991;-69
2021/05/14 08:18:57;;;;;;;52.20;15.95;;;;;;;19.88;53.47;99353.45;1713255;82;21868;-69
2021/05/14 08:21:24;;;;;;;86.47;21.30;;;;;;;19.98;53.49;99360.08;1709273;82;21754;-69
2021/05/14 08:23:51;;;;;;;22.30;11.80;;;;;;;20.14;53.85;99351.28;1735359;82;20963;-70
2021/05/14 08:26:17;;;;;;;35.88;14.78;;;;;;;20.30;53.24;99346.82;1728023;82;21023;-70
2021/05/14 08:28:44;;;;;;;35.92;13.78;;;;;;;20.46;52.86;99354.45;1702344;82;21813;-71
2021/05/14 08:31:11;;;;;;;27.77;11.57;;;;;;;20.57;52.43;99355.14;1705016;82;21725;-72
2021/05/14 08:33:37;;;;;;;17.23;8.28;;;;;;;20.65;52.09;99355.41;1704287;84;21127;-71
2021/05/14 08:36:05;;;;;;;13.30;7.15;;;;;;;20.74;51.13;99354.13;1706433;82;21565;-71
2021/05/14 08:38:32;;;;;;;16.17;7.42;;;;;;;20.68;50.64;99349.63;1705773;82;21011;-72
2021/05/14 08:41:07;;;;;;;16.23;7.87;;;;;;;20.50;51.00;99358.36;1705576;84;21067;-72
2021/05/14 08:43:35;;;;;;;16.73;7.58;;;;;;;20.42;51.10;99352.36;1705399;84;21813;-72
2021/05/14 08:46:02;;;;;;;10.98;7.17;;;;;;;20.39;51.31;99347.42;1705574;82;21007;-72
2021/05/14 08:48:35;;;;;;;15.25;7.10;;;;;;;20.45;51.48;99352.78;1705972;84;21023;-71
2021/05/14 08:51:09;;;;;;;11.60;6.85;;;;;;;20.56;51.59;99351.33;1706147;84;28684;-72
2021/05/14 08:53:37;;;;;;;16.37;8.13;;;;;;;20.65;51.09;99346.02;1725793;81;21559;-72
2021/05/14 08:56:05;;;;;;;13.05;7.22;;;;;;;20.66;51.19;99348.20;1706731;82;22175;-72
2021/05/14 08:58:31;;;;;;;18.57;7.50;;;;;;;20.70;50.60;99342.71;1705936;82;20978;-73
2021/05/14 09:00:58;;;;;;;14.60;7.05;;;;;;;20.72;50.59;99350.84;1708175;83;21698;-72
2021/05/14 09:03:24;;;;;;;9.40;6.83;;;;;;;20.90;51.01;99342.62;1719429;83;21090;-71
2021/05/14 09:05:50;;;;;;;11.70;7.22;;;;;;;21.14;50.89;99344.05;1721695;82;20998;-71
2021/05/14 09:08:31;;;;;;;10.28;5.97;;;;;;;21.27;49.39;99336.46;1719563;82;21564;-71
2021/05/14 09:10:58;;;;;;;10.68;6.78;;;;;;;21.29;49.04;99334.89;1744845;82;20998;-71
2021/05/14 09:13:37;;;;;;;21.80;6.85;;;;;;;21.30;49.11;99331.17;1719542;83;21078;-71
2021/05/14 09:16:04;;;;;;;17.27;6.97;;;;;;;21.43;49.51;99327.89;1718779;83;21563;-71
2021/05/14 09:18:31;;;;;;;34.23;7.95;;;;;;;21.64;49.06;99328.04;1719467;83;21480;-71
2021/05/14 09:20:59;;;;;;;30.97;8.23;;;;;;;21.76;48.76;99325.98;1719469;83;21761;-71
2021/05/14 09:23:35;;;;;;;20.35;6.65;;;;;;;21.81;48.59;99318.91;1719337;83;21026;-72
2021/05/14 09:26:12;;;;;;;16.87;6.15;;;;;;;21.85;48.71;99312.04;1719650;82;21583;-70
2021/05/14 09:28:45;;;;;;;8.20;5.97;;;;;;;21.94;48.42;99317.96;1719504;82;20978;-70
2021/05/14 09:31:20;;;;;;;7.85;5.55;;;;;;;22.00;47.79;99321.09;1725217;82;20986;-71
2021/05/14 09:33:57;;;;;;;11.38;5.40;;;;;;;22.15;46.60;99320.27;1719411;83;21744;-71
2021/05/14 09:36:31;;;;;;;11.30;5.35;;;;;;;22.17;46.66;99314.13;1719411;83;21113;-72
2021/05/14 09:39:03;;;;;;;7.65;5.03;;;;;;;21.94;46.29;99310.72;1719501;83;21003;-72
2021/05/14 09:41:41;;;;;;;33.70;5.83;;;;;;;21.65;47.18;99312.22;1719484;83;20974;-71
2021/05/14 09:44:14;;;;;;;45.70;5.90;;;;;;;21.56;47.75;99318.90;1720375;82;21516;-71
2021/05/14 09:46:44;;;;;;;14.45;4.72;;;;;;;21.53;47.52;99318.00;1721686;82;21604;-70
2021/05/14 09:49:13;;;;;;;11.75;4.62;;;;;;;21.47;47.43;99324.23;1724780;82;20967;-70
2021/05/14 09:51:56;;;;;;;16.52;4.42;;;;;;;21.35;47.61;99329.49;1719431;83;20987;-70
2021/05/14 09:54:33;;;;;;;9.15;4.83;;;;;;;21.32;48.76;99327.73;1734422;82;21494;-70
2021/05/14 10:00:04;;;;;;;64.72;9.08;;;;;;;21.66;48.77;99319.23;1723903;82;21794;-71
2021/05/14 10:02:34;;;;;;;37.67;7.70;;;;;;;21.96;48.84;99316.69;1732299;81;20991;-71
2021/05/14 10:05:06;;;;;;;15.38;6.17;;;;;;;22.19;47.79;99314.72;1705910;84;21478;-71
2021/05/14 10:07:36;;;;;;;23.10;6.15;;;;;;;22.35;47.52;99301.74;1705830;84;21341;-70
2021/05/14 10:10:07;;;;;;;41.95;8.20;;;;;;;22.55;46.98;99305.02;1705920;84;21046;-72
2021/05/14 10:12:34;;;;;;;124.07;15.35;;;;;;;22.73;46.68;99313.08;1706008;84;21762;-72
2021/05/14 10:15:03;;;;;;;32.28;7.10;;;;;;;22.88;46.70;99313.25;1705725;84;21450;-72
2021/05/14 10:17:29;;;;;;;48.80;9.15;;;;;;;22.94;46.12;99305.06;1707634;82;20968;-72
2021/05/14 10:19:57;;;;;;;13.72;5.05;;;;;;;23.02;45.83;99304.75;1686307;83;21086;-69
2021/05/14 10:22:29;;;;;;;74.58;11.55;;;;;;;22.89;45.26;99302.25;1705907;84;21649;-72
2021/05/14 10:24:58;;;;;;;33.18;7.53;;;;;;;22.88;45.89;99305.17;1705933;84;21842;-69
2021/05/14 10:27:32;;;;;;;102.35;17.00;;;;;;;22.98;45.56;99300.06;1705898;84;21062;-71
2021/05/14 10:30:00;;;;;;;31.62;9.13;;;;;;;22.91;44.80;99314.95;1718039;82;20951;-72
2021/05/14 10:32:47;;;;;;;96.05;16.73;;;;;;;22.84;44.93;99320.42;1735115;81;21486;-72
2021/05/14 10:35:28;;;;;;;56.42;12.58;;;;;;;22.78;45.14;99315.11;1704965;82;21047;-72
2021/05/14 10:38:04;;;;;;;31.15;8.53;;;;;;;22.69;45.66;99309.21;1729539;82;21692;-70
2021/05/14 10:40:38;;;;;;;50.38;10.23;;;;;;;22.63;45.82;99312.80;1717091;82;20986;-70
2021/05/14 10:43:13;;;;;;;122.13;17.27;;;;;;;22.57;46.04;99313.16;1706081;82;20999;-70
2021/05/14 10:45:49;;;;;;;343.45;64.10;;;;;;;22.56;46.69;99316.08;1706744;82;20982;-71
2021/05/14 10:48:18;;;;;;;65.65;12.90;;;;;;;22.49;45.80;99313.48;1686615;83;21042;-70
2021/05/14 10:50:55;;;;;;;8.95;3.62;;;;;;;22.49;45.79;99314.02;1709025;82;21755;-71
2021/05/14 10:53:36;;;;;;;53.55;10.72;;;;;;;22.39;45.42;99310.50;1735076;81;21126;-70
2021/05/14 10:56:15;;;;;;;27.73;7.62;;;;;;;22.33;46.40;99310.05;1715183;82;21051;-70
2021/05/14 10:59:03;;;;;;;18.05;5.10;;;;;;;22.33;46.48;99319.98;1705985;84;20975;-70
2021/05/14 11:01:39;;;;;;;13.55;4.05;;;;;;;22.43;46.96;99314.37;1705847;83;21137;-71
2021/05/14 11:04:17;;;;;;;13.58;3.60;;;;;;;22.59;45.83;99316.17;1705932;84;21773;-70
2021/05/14 11:06:48;;;;;;;14.18;4.30;;;;;;;22.68;45.80;99322.87;1693492;83;21605;-71
2021/05/14 11:09:15;;;;;;;11.75;4.47;;;;;;;22.85;45.76;99305.91;1706880;82;21545;-71
2021/05/14 11:12:06;;;;;;;8.15;4.90;;;;;;;22.98;45.42;99302.23;1706352;82;21090;-72
2021/05/14 11:14:48;;;;;;;8.45;5.12;;;;;;;23.10;44.82;99307.66;1705912;84;21069;-71
2021/05/14 11:17:19;;;;;;;9.90;5.83;;;;;;;23.12;44.13;99296.12;1705952;84;21772;-71
2021/05/14 11:19:50;;;;;;;8.03;2.33;;;;;;;23.08;44.91;99305.20;1705850;84;21034;-71
2021/05/14 11:22:24;;;;;;;4.97;2.55;;;;;;;23.10;41.41;99306.31;1705807;83;21019;-72
2021/05/14 11:25:17;;;;;;;9.80;2.30;;;;;;;23.13;42.02;99301.80;1706804;82;21072;-72
2021/05/14 11:27:43;;;;;;;4.67;1.85;;;;;;;23.19;41.00;99306.28;1705997;84;21105;-72
2021/05/14 11:30:15;;;;;;;2.80;1.90;;;;;;;23.18;40.41;99299.25;1706407;82;21718;-71
2021/05/14 11:32:44;;;;;;;8.83;1.72;;;;;;;23.16;39.84;99307.24;1705776;83;21023;-73
2021/05/14 11:35:25;;;;;;;11.90;2.20;;;;;;;23.05;39.45;99306.98;1705858;84;21117;-73
2021/05/14 11:37:58;;;;;;;5.78;1.82;;;;;;;22.96;39.30;99304.30;1705554;84;20994;-73
2021/05/14 11:40:38;;;;;;;6.95;1.82;;;;;;;23.01;40.62;99303.64;1705719;84;21030;-73